sensor_id;sensor_type;location;lat;lon;timestamp;pressure;altitude;pressure_sealevel;temperature;humidity
54920;BME280;63804;53.120;8.764;2023-05-09T00:00:52;101977.00;;;15.91;47.53
54920;BME280;63804;53.120;8.764;2023-05-09T00:03:19;101976.25;;;15.89;47.27
54920;BME280;63804;53.120;8.764;2023-05-09T00:05:46;101978.44;;;15.84;47.54
54920;BME280;63804;53.120;8.764;2023-05-09T00:08:14;101978.75;;;15.79;47.75
54920;BME280;63804;53.120;8.764;2023-05-09T00:10:42;101982.28;;;15.69;48.00
54920;BME280;63804;53.120;8.764;2023-05-09T00:13:09;101979.59;;;15.69;47.97
54920;BME280;63804;53.120;8.764;2023-05-09T00:15:36;101976.09;;;15.68;48.06
54920;BME280;63804;53.120;8.764;2023-05-09T00:18:03;101976.81;;;15.70;48.12
54920;BME280;63804;53.120;8.764;2023-05-09T00:20:30;101970.84;;;15.67;47.98
54920;BME280;63804;53.120;8.764;2023-05-09T00:22:59;101975.53;;;15.63;48.06
54920;BME280;63804;53.120;8.764;2023-05-09T00:25:27;101973.72;;;15.64;48.10
54920;BME280;63804;53.120;8.764;2023-05-09T00:27:54;101969.91;;;15.55;48.27
54920;BME280;63804;53.120;8.764;2023-05-09T00:30:21;101962.88;;;15.54;48.13
54920;BME280;63804;53.120;8.764;2023-05-09T00:32:48;101954.66;;;15.57;48.35
54920;BME280;63804;53.120;8.764;2023-05-09T00:35:15;101960.47;;;15.62;48.08
54920;BME280;63804;53.120;8.764;2023-05-09T00:37:42;101960.94;;;15.56;47.89
54920;BME280;63804;53.120;8.764;2023-05-09T00:40:10;101952.81;;;15.57;47.78
54920;BME280;63804;53.120;8.764;2023-05-09T00:42:37;101955.38;;;15.59;47.60
54920;BME280;63804;53.120;8.764;2023-05-09T00:45:05;101955.00;;;15.64;47.62
54920;BME280;63804;53.120;8.764;2023-05-09T00:47:33;101946.38;;;15.60;47.97
54920;BME280;63804;53.120;8.764;2023-05-09T00:50:01;101946.59;;;15.46;48.30
54920;BME280;63804;53.120;8.764;2023-05-09T00:52:28;101931.19;;;15.49;48.02
54920;BME280;63804;53.120;8.764;2023-05-09T00:54:55;101928.84;;;15.45;48.03
54920;BME280;63804;53.120;8.764;2023-05-09T00:57:41;101931.16;;;15.38;48.13
54920;BME280;63804;53.120;8.764;2023-05-09T01:00:28;101921.31;;;15.39;48.21
54920;BME280;63804;53.120;8.764;2023-05-09T01:03:15;101924.44;;;15.32;48.69
54920;BME280;63804;53.120;8.764;2023-05-09T01:05:51;101919.09;;;15.32;48.38
54920;BME280;63804;53.120;8.764;2023-05-09T01:08:33;101910.88;;;15.35;48.13
54920;BME280;63804;53.120;8.764;2023-05-09T01:11:21;101908.19;;;15.35;48.11
54920;BME280;63804;53.120;8.764;2023-05-09T01:19:55;101901.56;;;15.17;48.71
54920;BME280;63804;53.120;8.764;2023-05-09T01:22:28;101902.66;;;15.15;48.48
54920;BME280;63804;53.120;8.764;2023-05-09T01:30:02;101895.69;;;15.01;48.94
54920;BME280;63804;53.120;8.764;2023-05-09T01:32:31;101898.34;;;15.01;48.52
54920;BME280;63804;53.120;8.764;2023-05-09T01:35:02;101897.28;;;15.03;48.41
54920;BME280;63804;53.120;8.764;2023-05-09T01:37:33;101890.97;;;15.04;48.51
54920;BME280;63804;53.120;8.764;2023-05-09T01:40:28;101885.91;;;15.13;47.89
54920;BME280;63804;53.120;8.764;2023-05-09T01:43:03;101891.19;;;15.01;48.39
54920;BME280;63804;53.120;8.764;2023-05-09T01:45:32;101884.25;;;14.99;48.33
54920;BME280;63804;53.120;8.764;2023-05-09T01:48:00;101886.00;;;15.00;48.13
54920;BME280;63804;53.120;8.764;2023-05-09T01:50:29;101881.84;;;14.96;47.82
54920;BME280;63804;53.120;8.764;2023-05-09T01:52:57;101881.84;;;14.96;47.75
54920;BME280;63804;53.120;8.764;2023-05-09T01:55:27;101882.56;;;14.98;47.48
54920;BME280;63804;53.120;8.764;2023-05-09T01:57:56;101881.50;;;15.00;47.33
54920;BME280;63804;53.120;8.764;2023-05-09T02:00:25;101872.34;;;14.92;47.67
54920;BME280;63804;53.120;8.764;2023-05-09T02:02:53;101868.66;;;14.81;47.89
54920;BME280;63804;53.120;8.764;2023-05-09T02:05:26;101872.59;;;14.89;47.46
54920;BME280;63804;53.120;8.764;2023-05-09T02:07:55;101864.06;;;14.83;47.32
54920;BME280;63804;53.120;8.764;2023-05-09T02:10:28;101857.72;;;14.73;47.29
54920;BME280;63804;53.120;8.764;2023-05-09T02:12:56;101861.44;;;14.71;47.68
54920;BME280;63804;53.120;8.764;2023-05-09T02:15:24;101859.06;;;14.79;47.40
54920;BME280;63804;53.120;8.764;2023-05-09T02:17:51;101860.66;;;14.81;47.01
54920;BME280;63804;53.120;8.764;2023-05-09T02:20:19;101860.66;;;14.81;46.97
54920;BME280;63804;53.120;8.764;2023-05-09T02:22:46;101864.75;;;14.74;47.20
54920;BME280;63804;53.120;8.764;2023-05-09T02:25:13;101854.31;;;14.71;47.16
54920;BME280;63804;53.120;8.764;2023-05-09T02:27:45;101857.47;;;14.76;46.98
54920;BME280;63804;53.120;8.764;2023-05-09T02:30:18;101860.47;;;14.72;46.91
54920;BME280;63804;53.120;8.764;2023-05-09T02:32:51;101853.72;;;14.55;47.61
54920;BME280;63804;53.120;8.764;2023-05-09T02:35:20;101853.50;;;14.58;47.54
54920;BME280;63804;53.120;8.764;2023-05-09T02:37:48;101848.41;;;14.55;47.67
54920;BME280;63804;53.120;8.764;2023-05-09T02:40:16;101855.22;;;14.59;47.47
54920;BME280;63804;53.120;8.764;2023-05-09T02:42:44;101855.31;;;14.57;47.23
54920;BME280;63804;53.120;8.764;2023-05-09T02:45:11;101854.78;;;14.52;47.37
54920;BME280;63804;53.120;8.764;2023-05-09T02:47:38;101847.94;;;14.48;47.77
54920;BME280;63804;53.120;8.764;2023-05-09T02:50:05;101845.50;;;14.45;47.72
54920;BME280;63804;53.120;8.764;2023-05-09T02:52:33;101846.34;;;14.46;47.59
54920;BME280;63804;53.120;8.764;2023-05-09T02:55:01;101839.44;;;14.43;47.76
54920;BME280;63804;53.120;8.764;2023-05-09T02:57:29;101834.84;;;14.45;47.52
54920;BME280;63804;53.120;8.764;2023-05-09T02:59:56;101837.28;;;14.48;47.29
54920;BME280;63804;53.120;8.764;2023-05-09T03:02:23;101832.41;;;14.42;47.40
54920;BME280;63804;53.120;8.764;2023-05-09T03:04:51;101834.22;;;14.42;47.42
54920;BME280;63804;53.120;8.764;2023-05-09T03:07:17;101833.38;;;14.41;47.28
54920;BME280;63804;53.120;8.764;2023-05-09T03:09:44;101826.47;;;14.38;47.50
54920;BME280;63804;53.120;8.764;2023-05-09T03:12:11;101829.34;;;14.35;47.62
54920;BME280;63804;53.120;8.764;2023-05-09T03:14:38;101830.41;;;14.33;47.71
54920;BME280;63804;53.120;8.764;2023-05-09T03:17:05;101825.75;;;14.24;47.78
54920;BME280;63804;53.120;8.764;2023-05-09T03:19:33;101830.00;;;14.26;47.67
54920;BME280;63804;53.120;8.764;2023-05-09T03:22:00;101825.84;;;14.22;47.52
54920;BME280;63804;53.120;8.764;2023-05-09T03:24:27;101820.53;;;14.22;47.84
54920;BME280;63804;53.120;8.764;2023-05-09T03:26:54;101822.25;;;14.23;47.50
54920;BME280;63804;53.120;8.764;2023-05-09T03:29:21;101818.53;;;14.13;48.35
54920;BME280;63804;53.120;8.764;2023-05-09T03:31:48;101828.47;;;13.98;48.38
54920;BME280;63804;53.120;8.764;2023-05-09T03:34:15;101829.44;;;13.97;49.00
54920;BME280;63804;53.120;8.764;2023-05-09T03:36:42;101833.16;;;13.95;49.02
54920;BME280;63804;53.120;8.764;2023-05-09T03:39:10;101833.25;;;14.06;48.52
54920;BME280;63804;53.120;8.764;2023-05-09T03:41:37;101827.59;;;14.10;48.61
54920;BME280;63804;53.120;8.764;2023-05-09T03:44:04;101822.50;;;13.95;48.92
54920;BME280;63804;53.120;8.764;2023-05-09T03:46:31;101832.63;;;13.89;49.26
54920;BME280;63804;53.120;8.764;2023-05-09T03:48:58;101829.53;;;13.83;49.58
54920;BME280;63804;53.120;8.764;2023-05-09T03:51:25;101835.19;;;13.78;49.68
54920;BME280;63804;53.120;8.764;2023-05-09T03:53:52;101831.66;;;13.90;49.63
54920;BME280;63804;53.120;8.764;2023-05-09T03:56:19;101827.06;;;14.05;49.23
54920;BME280;63804;53.120;8.764;2023-05-09T03:58:46;101816.19;;;14.08;48.81
54920;BME280;63804;53.120;8.764;2023-05-09T04:01:14;101815.03;;;14.00;48.97
54920;BME280;63804;53.120;8.764;2023-05-09T04:03:41;101815.03;;;14.00;49.19
54920;BME280;63804;53.120;8.764;2023-05-09T04:06:08;101801.69;;;14.00;48.97
54920;BME280;63804;53.120;8.764;2023-05-09T04:08:35;101799.34;;;14.08;48.67
54920;BME280;63804;53.120;8.764;2023-05-09T04:11:03;101802.22;;;14.18;48.10
54920;BME280;63804;53.120;8.764;2023-05-09T04:13:30;101796.69;;;14.08;48.42
54920;BME280;63804;53.120;8.764;2023-05-09T04:15:58;101799.25;;;14.09;48.31
54920;BME280;63804;53.120;8.764;2023-05-09T04:18:25;101799.03;;;14.12;48.25
54920;BME280;63804;53.120;8.764;2023-05-09T04:20:52;101796.13;;;14.15;48.11
54920;BME280;63804;53.120;8.764;2023-05-09T04:23:19;101798.28;;;14.10;48.09
54920;BME280;63804;53.120;8.764;2023-05-09T04:25:46;101798.75;;;14.04;48.33
54920;BME280;63804;53.120;8.764;2023-05-09T04:28:17;101798.41;;;14.09;48.21
54920;BME280;63804;53.120;8.764;2023-05-09T04:30:43;101798.75;;;14.04;48.55
54920;BME280;63804;53.120;8.764;2023-05-09T04:33:11;101800.78;;;14.01;48.78
54920;BME280;63804;53.120;8.764;2023-05-09T04:35:38;101794.78;;;14.10;49.07
54920;BME280;63804;53.120;8.764;2023-05-09T04:38:07;101794.00;;;14.21;48.71
54920;BME280;63804;53.120;8.764;2023-05-09T04:40:34;101793.66;;;14.25;48.52
54920;BME280;63804;53.120;8.764;2023-05-09T04:43:01;101791.22;;;14.22;48.49
54920;BME280;63804;53.120;8.764;2023-05-09T04:45:29;101777.69;;;14.25;48.41
54920;BME280;63804;53.120;8.764;2023-05-09T04:47:56;101768.97;;;14.23;48.44
54920;BME280;63804;53.120;8.764;2023-05-09T04:50:23;101777.16;;;14.20;48.68
54920;BME280;63804;53.120;8.764;2023-05-09T04:52:50;101776.63;;;14.15;48.81
54920;BME280;63804;53.120;8.764;2023-05-09T04:55:17;101773.31;;;14.24;48.85
54920;BME280;63804;53.120;8.764;2023-05-09T04:57:44;101774.66;;;14.30;48.61
54920;BME280;63804;53.120;8.764;2023-05-09T05:00:11;101763.91;;;14.31;48.89
54920;BME280;63804;53.120;8.764;2023-05-09T05:02:38;101760.78;;;14.37;48.88
54920;BME280;63804;53.120;8.764;2023-05-09T05:05:06;101756.84;;;14.43;48.76
54920;BME280;63804;53.120;8.764;2023-05-09T05:07:38;101754.78;;;14.47;48.54
54920;BME280;63804;53.120;8.764;2023-05-09T05:10:05;101748.66;;;14.33;48.99
54920;BME280;63804;53.120;8.764;2023-05-09T05:12:32;101749.41;;;14.35;49.25
54920;BME280;63804;53.120;8.764;2023-05-09T05:14:59;101749.69;;;14.44;48.82
54920;BME280;63804;53.120;8.764;2023-05-09T05:17:27;101745.81;;;14.48;48.90
54920;BME280;63804;53.120;8.764;2023-05-09T05:19:55;101752.78;;;14.50;49.06
54920;BME280;63804;53.120;8.764;2023-05-09T05:22:22;101747.94;;;14.55;49.21
54920;BME280;63804;53.120;8.764;2023-05-09T05:24:49;101744.84;;;14.61;48.89
54920;BME280;63804;53.120;8.764;2023-05-09T05:27:17;101740.94;;;14.54;49.28
54920;BME280;63804;53.120;8.764;2023-05-09T05:29:44;101739.81;;;14.57;49.62
54920;BME280;63804;53.120;8.764;2023-05-09T05:32:11;101745.56;;;14.63;49.30
54920;BME280;63804;53.120;8.764;2023-05-09T05:34:38;101744.59;;;14.65;49.52
54920;BME280;63804;53.120;8.764;2023-05-09T05:37:05;101746.06;;;14.69;49.57
54920;BME280;63804;53.120;8.764;2023-05-09T05:39:32;101739.66;;;14.71;49.39
54920;BME280;63804;53.120;8.764;2023-05-09T05:41:59;101737.72;;;14.73;49.34
54920;BME280;63804;53.120;8.764;2023-05-09T05:44:26;101732.03;;;14.78;49.38
54920;BME280;63804;53.120;8.764;2023-05-09T05:46:53;101736.53;;;14.77;49.48
54920;BME280;63804;53.120;8.764;2023-05-09T05:49:20;101735.06;;;14.73;49.46
54920;BME280;63804;53.120;8.764;2023-05-09T05:51:47;101732.13;;;14.76;49.74
54920;BME280;63804;53.120;8.764;2023-05-09T05:54:14;101734.94;;;14.75;49.85
54920;BME280;63804;53.120;8.764;2023-05-09T05:56:41;101726.22;;;14.84;49.76
54920;BME280;63804;53.120;8.764;2023-05-09T05:59:08;101725.38;;;14.83;50.18
54920;BME280;63804;53.120;8.764;2023-05-09T06:01:38;101722.72;;;14.83;50.66
54920;BME280;63804;53.120;8.764;2023-05-09T06:04:05;101723.06;;;14.79;50.77
54920;BME280;63804;53.120;8.764;2023-05-09T06:06:32;101722.97;;;14.92;50.37
54920;BME280;63804;53.120;8.764;2023-05-09T06:09:00;101723.69;;;14.82;50.52
54920;BME280;63804;53.120;8.764;2023-05-09T06:11:27;101723.34;;;14.87;50.55
54920;BME280;63804;53.120;8.764;2023-05-09T06:13:54;101718.22;;;14.84;50.57
54920;BME280;63804;53.120;8.764;2023-05-09T06:16:21;101713.50;;;14.87;50.83
54920;BME280;63804;53.120;8.764;2023-05-09T06:18:49;101719.00;;;14.97;50.55
54920;BME280;63804;53.120;8.764;2023-05-09T06:21:17;101711.50;;;15.02;50.87
54920;BME280;63804;53.120;8.764;2023-05-09T06:23:44;101719.38;;;15.04;50.52
54920;BME280;63804;53.120;8.764;2023-05-09T06:26:14;101704.84;;;15.08;50.47
54920;BME280;63804;53.120;8.764;2023-05-09T06:28:41;101707.28;;;15.11;50.63
54920;BME280;63804;53.120;8.764;2023-05-09T06:31:08;101697.94;;;15.17;50.86
54920;BME280;63804;53.120;8.764;2023-05-09T06:33:35;101692.47;;;15.18;51.14
54920;BME280;63804;53.120;8.764;2023-05-09T06:36:02;101697.56;;;15.21;51.14
54920;BME280;63804;53.120;8.764;2023-05-09T06:38:29;101691.38;;;15.21;50.94
54920;BME280;63804;53.120;8.764;2023-05-09T06:40:56;101687.25;;;15.17;51.29
54920;BME280;63804;53.120;8.764;2023-05-09T06:43:23;101683.63;;;15.18;51.39
54920;BME280;63804;53.120;8.764;2023-05-09T06:45:50;101675.16;;;15.24;51.09
54920;BME280;63804;53.120;8.764;2023-05-09T06:48:18;101675.53;;;15.30;51.24
54920;BME280;63804;53.120;8.764;2023-05-09T06:50:45;101675.75;;;15.39;51.22
54920;BME280;63804;53.120;8.764;2023-05-09T06:53:12;101678.44;;;15.39;51.31
54920;BME280;63804;53.120;8.764;2023-05-09T06:55:39;101673.56;;;15.44;51.53
54920;BME280;63804;53.120;8.764;2023-05-09T06:58:06;101666.63;;;15.52;51.70
54920;BME280;63804;53.120;8.764;2023-05-09T07:00:33;101666.28;;;15.57;51.48
54920;BME280;63804;53.120;8.764;2023-05-09T07:03:01;101665.16;;;15.59;51.99
54920;BME280;63804;53.120;8.764;2023-05-09T07:05:28;101661.66;;;15.70;51.61
54920;BME280;63804;53.120;8.764;2023-05-09T07:07:55;101653.78;;;15.69;51.86
54920;BME280;63804;53.120;8.764;2023-05-09T07:10:22;101648.53;;;15.78;51.82
54920;BME280;63804;53.120;8.764;2023-05-09T07:12:50;101638.81;;;15.89;52.22
54920;BME280;63804;53.120;8.764;2023-05-09T07:15:17;101650.44;;;15.99;52.35
54920;BME280;63804;53.120;8.764;2023-05-09T07:17:58;101641.06;;;16.04;52.62
54920;BME280;63804;53.120;8.764;2023-05-09T07:20:25;101642.50;;;16.08;52.68
54920;BME280;63804;53.120;8.764;2023-05-09T07:22:52;101642.97;;;16.14;52.55
54920;BME280;63804;53.120;8.764;2023-05-09T07:25:19;101645.00;;;16.21;52.28
54920;BME280;63804;53.120;8.764;2023-05-09T07:27:46;101634.25;;;16.32;52.46
54920;BME280;63804;53.120;8.764;2023-05-09T07:30:13;101634.34;;;16.42;52.78
54920;BME280;63804;53.120;8.764;2023-05-09T07:32:41;101626.06;;;16.45;52.38
54920;BME280;63804;53.120;8.764;2023-05-09T07:35:08;101616.56;;;16.52;51.88
54920;BME280;63804;53.120;8.764;2023-05-09T07:37:35;101612.66;;;16.56;52.06
54920;BME280;63804;53.120;8.764;2023-05-09T07:40:02;101612.94;;;16.63;52.28
54920;BME280;63804;53.120;8.764;2023-05-09T07:42:31;101601.59;;;16.71;52.53
54920;BME280;63804;53.120;8.764;2023-05-09T07:44:58;101609.84;;;16.79;52.31
54920;BME280;63804;53.120;8.764;2023-05-09T07:47:26;101602.13;;;16.86;52.45
54920;BME280;63804;53.120;8.764;2023-05-09T07:49:53;101607.88;;;16.81;52.49
54920;BME280;63804;53.120;8.764;2023-05-09T07:52:20;101596.78;;;16.86;52.63
54920;BME280;63804;53.120;8.764;2023-05-09T07:54:47;101595.16;;;16.94;52.59
54920;BME280;63804;53.120;8.764;2023-05-09T07:57:14;101597.53;;;16.97;52.46
54920;BME280;63804;53.120;8.764;2023-05-09T07:59:42;101586.72;;;16.99;52.49
54920;BME280;63804;53.120;8.764;2023-05-09T08:02:09;101583.47;;;17.05;52.19
54920;BME280;63804;53.120;8.764;2023-05-09T08:04:37;101576.03;;;17.09;52.64
54920;BME280;63804;53.120;8.764;2023-05-09T08:07:04;101578.03;;;17.16;53.00
54920;BME280;63804;53.120;8.764;2023-05-09T08:09:33;101567.63;;;17.23;52.84
54920;BME280;63804;53.120;8.764;2023-05-09T08:12:00;101567.22;;;17.27;52.65
54920;BME280;63804;53.120;8.764;2023-05-09T08:14:27;101566.38;;;17.27;52.90
54920;BME280;63804;53.120;8.764;2023-05-09T08:16:54;101562.84;;;17.26;52.75
54920;BME280;63804;53.120;8.764;2023-05-09T08:19:21;101561.75;;;17.29;52.94
54920;BME280;63804;53.120;8.764;2023-05-09T08:21:52;101549.88;;;17.32;53.09
54920;BME280;63804;53.120;8.764;2023-05-09T08:24:19;101547.94;;;17.34;53.43
54920;BME280;63804;53.120;8.764;2023-05-09T08:26:46;101540.91;;;17.42;53.69
54920;BME280;63804;53.120;8.764;2023-05-09T08:29:13;101551.91;;;17.49;53.26
54920;BME280;63804;53.120;8.764;2023-05-09T08:31:40;101542.34;;;17.56;53.15
54920;BME280;63804;53.120;8.764;2023-05-09T08:34:08;101530.09;;;17.63;53.94
54920;BME280;63804;53.120;8.764;2023-05-09T08:36:35;101536.19;;;17.75;53.79
54920;BME280;63804;53.120;8.764;2023-05-09T08:39:02;101530.06;;;17.73;54.02
54920;BME280;63804;53.120;8.764;2023-05-09T08:41:32;101538.97;;;17.73;54.31
54920;BME280;63804;53.120;8.764;2023-05-09T08:44:02;101530.22;;;17.71;54.16
54920;BME280;63804;53.120;8.764;2023-05-09T08:46:33;101529.38;;;17.71;54.10
54920;BME280;63804;53.120;8.764;2023-05-09T08:49:04;101534.06;;;17.78;54.23
54920;BME280;63804;53.120;8.764;2023-05-09T08:51:34;101532.81;;;17.83;54.80
54920;BME280;63804;53.120;8.764;2023-05-09T08:54:01;101534.34;;;17.85;54.38
54920;BME280;63804;53.120;8.764;2023-05-09T08:56:29;101519.09;;;17.95;54.56
54920;BME280;63804;53.120;8.764;2023-05-09T08:58:57;101511.63;;;17.99;54.23
54920;BME280;63804;53.120;8.764;2023-05-09T09:01:27;101517.13;;;18.07;54.27
54920;BME280;63804;53.120;8.764;2023-05-09T09:03:55;101506.81;;;18.12;54.48
54920;BME280;63804;53.120;8.764;2023-05-09T09:06:22;101500.75;;;18.10;54.33
54920;BME280;63804;53.120;8.764;2023-05-09T09:08:53;101505.69;;;18.15;54.07
54920;BME280;63804;53.120;8.764;2023-05-09T09:11:20;101495.50;;;18.18;53.71
54920;BME280;63804;53.120;8.764;2023-05-09T09:13:50;101496.06;;;18.22;54.25
54920;BME280;63804;53.120;8.764;2023-05-09T09:16:21;101487.03;;;18.23;53.44
54920;BME280;63804;53.120;8.764;2023-05-09T09:18:50;101478.69;;;18.26;54.16
54920;BME280;63804;53.120;8.764;2023-05-09T09:21:18;101478.25;;;18.31;54.15
54920;BME280;63804;53.120;8.764;2023-05-09T09:23:46;101483.19;;;18.35;54.33
54920;BME280;63804;53.120;8.764;2023-05-09T09:26:14;101486.56;;;18.37;54.13
54920;BME280;63804;53.120;8.764;2023-05-09T09:28:42;101471.84;;;18.51;54.54
54920;BME280;63804;53.120;8.764;2023-05-09T09:31:26;101466.34;;;18.52;53.63
54920;BME280;63804;53.120;8.764;2023-05-09T09:34:01;101455.75;;;18.51;54.19
54920;BME280;63804;53.120;8.764;2023-05-09T09:36:29;101448.78;;;18.58;54.54
54920;BME280;63804;53.120;8.764;2023-05-09T09:38:59;101447.66;;;18.70;54.54
54920;BME280;63804;53.120;8.764;2023-05-09T09:41:34;101450.16;;;18.82;54.44
54920;BME280;63804;53.120;8.764;2023-05-09T09:44:12;101455.31;;;18.93;53.81
54920;BME280;63804;53.120;8.764;2023-05-09T09:46:55;101454.97;;;18.96;53.84
54920;BME280;63804;53.120;8.764;2023-05-09T09:49:23;101453.38;;;19.03;53.57
54920;BME280;63804;53.120;8.764;2023-05-09T09:51:57;101454.19;;;19.13;53.41
54920;BME280;63804;53.120;8.764;2023-05-09T09:54:26;101451.13;;;19.08;53.70
54920;BME280;63804;53.120;8.764;2023-05-09T09:56:54;101444.81;;;19.17;54.47
54920;BME280;63804;53.120;8.764;2023-05-09T09:59:24;101448.38;;;19.36;53.65
54920;BME280;63804;53.120;8.764;2023-05-09T10:04:20;101445.50;;;19.55;53.59
54920;BME280;63804;53.120;8.764;2023-05-09T10:06:55;101432.88;;;19.65;52.91
54920;BME280;63804;53.120;8.764;2023-05-09T10:09:23;101433.84;;;19.64;53.33
54920;BME280;63804;53.120;8.764;2023-05-09T10:11:51;101423.63;;;19.68;53.26
54920;BME280;63804;53.120;8.764;2023-05-09T10:14:22;101421.66;;;19.70;53.18
54920;BME280;63804;53.120;8.764;2023-05-09T10:16:56;101414.44;;;19.70;52.70
54920;BME280;63804;53.120;8.764;2023-05-09T10:19:25;101411.13;;;19.77;53.33
54920;BME280;63804;53.120;8.764;2023-05-09T10:21:55;101402.00;;;19.95;53.18
54920;BME280;63804;53.120;8.764;2023-05-09T10:24:33;101400.56;;;20.09;52.81
54920;BME280;63804;53.120;8.764;2023-05-09T10:27:02;101401.28;;;20.11;52.08
54920;BME280;63804;53.120;8.764;2023-05-09T10:29:38;101395.09;;;20.19;51.87
54920;BME280;63804;53.120;8.764;2023-05-09T10:35:01;101373.72;;;20.17;51.45
54920;BME280;63804;53.120;8.764;2023-05-09T10:37:30;101366.16;;;20.21;51.60
54920;BME280;63804;53.120;8.764;2023-05-09T10:40:02;101369.44;;;20.41;51.20
54920;BME280;63804;53.120;8.764;2023-05-09T10:42:30;101359.91;;;20.47;51.31
54920;BME280;63804;53.120;8.764;2023-05-09T10:44:58;101356.91;;;20.50;51.46
54920;BME280;63804;53.120;8.764;2023-05-09T10:47:26;101342.91;;;20.46;50.87
54920;BME280;63804;53.120;8.764;2023-05-09T10:49:54;101343.13;;;20.53;51.02
54920;BME280;63804;53.120;8.764;2023-05-09T10:52:22;101341.81;;;20.57;50.69
54920;BME280;63804;53.120;8.764;2023-05-09T10:54:59;101339.16;;;20.73;50.10
54920;BME280;63804;53.120;8.764;2023-05-09T10:57:28;101328.72;;;20.70;50.55
54920;BME280;63804;53.120;8.764;2023-05-09T10:59:56;101331.22;;;20.63;50.36
54920;BME280;63804;53.120;8.764;2023-05-09T11:02:24;101327.19;;;20.67;50.30
54920;BME280;63804;53.120;8.764;2023-05-09T11:05:17;101324.34;;;20.85;49.50
54920;BME280;63804;53.120;8.764;2023-05-09T11:07:45;101320.50;;;20.88;49.63
54920;BME280;63804;53.120;8.764;2023-05-09T11:10:16;101324.03;;;20.97;49.63
54920;BME280;63804;53.120;8.764;2023-05-09T11:12:57;101319.66;;;21.12;49.93
54920;BME280;63804;53.120;8.764;2023-05-09T11:15:25;101316.13;;;21.03;49.48
54920;BME280;63804;53.120;8.764;2023-05-09T11:20:33;101308.91;;;21.04;49.66
54920;BME280;63804;53.120;8.764;2023-05-09T11:23:05;101307.56;;;21.00;49.91
54920;BME280;63804;53.120;8.764;2023-05-09T11:25:32;101317.16;;;21.10;50.10
54920;BME280;63804;53.120;8.764;2023-05-09T11:28:00;101305.19;;;21.13;49.48
54920;BME280;63804;53.120;8.764;2023-05-09T11:30:37;101296.94;;;20.98;49.59
54920;BME280;63804;53.120;8.764;2023-05-09T11:33:05;101300.63;;;20.81;49.70
54920;BME280;63804;53.120;8.764;2023-05-09T11:35:37;101290.53;;;20.83;49.84
54920;BME280;63804;53.120;8.764;2023-05-09T11:38:05;101291.53;;;20.82;49.32
54920;BME280;63804;53.120;8.764;2023-05-09T11:40:33;101289.88;;;20.89;49.41
54920;BME280;63804;53.120;8.764;2023-05-09T11:43:00;101270.00;;;20.98;49.87
54920;BME280;63804;53.120;8.764;2023-05-09T11:45:29;101277.91;;;21.16;49.74
54920;BME280;63804;53.120;8.764;2023-05-09T11:47:57;101277.44;;;21.37;49.12
54920;BME280;63804;53.120;8.764;2023-05-09T11:50:24;101274.06;;;21.35;48.85
54920;BME280;63804;53.120;8.764;2023-05-09T11:52:52;101268.13;;;21.23;49.28
54920;BME280;63804;53.120;8.764;2023-05-09T11:55:20;101262.25;;;21.28;48.97
54920;BME280;63804;53.120;8.764;2023-05-09T11:57:50;101260.03;;;21.31;48.86
54920;BME280;63804;53.120;8.764;2023-05-09T12:00:23;101252.16;;;21.22;48.91
54920;BME280;63804;53.120;8.764;2023-05-09T12:02:51;101263.94;;;21.21;48.57
54920;BME280;63804;53.120;8.764;2023-05-09T12:05:21;101254.69;;;21.15;49.31
54920;BME280;63804;53.120;8.764;2023-05-09T12:07:48;101251.31;;;21.13;49.34
54920;BME280;63804;53.120;8.764;2023-05-09T12:10:18;101255.84;;;21.21;49.20
54920;BME280;63804;53.120;8.764;2023-05-09T12:12:47;101249.44;;;21.46;48.45
54920;BME280;63804;53.120;8.764;2023-05-09T12:15:15;101246.19;;;21.59;47.90
54920;BME280;63804;53.120;8.764;2023-05-09T12:17:44;101247.03;;;21.59;47.94
54920;BME280;63804;53.120;8.764;2023-05-09T12:20:15;101234.75;;;21.57;48.06
54920;BME280;63804;53.120;8.764;2023-05-09T12:22:42;101239.81;;;21.60;47.89
54920;BME280;63804;53.120;8.764;2023-05-09T12:25:10;101229.66;;;21.70;47.62
54920;BME280;63804;53.120;8.764;2023-05-09T12:27:39;101232.16;;;21.80;47.21
54920;BME280;63804;53.120;8.764;2023-05-09T12:30:07;101224.41;;;21.77;47.98
54920;BME280;63804;53.120;8.764;2023-05-09T12:32:37;101212.63;;;21.70;47.52
54920;BME280;63804;53.120;8.764;2023-05-09T12:35:07;101222.28;;;21.64;47.99
54920;BME280;63804;53.120;8.764;2023-05-09T12:37:35;101214.38;;;21.54;48.53
54920;BME280;63804;53.120;8.764;2023-05-09T12:40:09;101204.78;;;21.52;48.30
54920;BME280;63804;53.120;8.764;2023-05-09T12:42:42;101216.09;;;21.39;48.79
54920;BME280;63804;53.120;8.764;2023-05-09T12:45:10;101199.44;;;21.27;48.49
54920;BME280;63804;53.120;8.764;2023-05-09T12:47:37;101194.75;;;21.37;48.70
54920;BME280;63804;53.120;8.764;2023-05-09T12:50:06;101194.19;;;21.50;48.98
54920;BME280;63804;53.120;8.764;2023-05-09T12:52:36;101193.84;;;21.53;47.36
54920;BME280;63804;53.120;8.764;2023-05-09T12:55:17;101192.16;;;21.44;47.54
54920;BME280;63804;53.120;8.764;2023-05-09T12:57:56;101193.50;;;21.56;47.60
54920;BME280;63804;53.120;8.764;2023-05-09T13:00:23;101178.31;;;21.55;46.90
54920;BME280;63804;53.120;8.764;2023-05-09T13:02:51;101189.06;;;21.63;47.19
54920;BME280;63804;53.120;8.764;2023-05-09T13:05:20;101179.41;;;21.77;47.12
54920;BME280;63804;53.120;8.764;2023-05-09T13:07:49;101174.19;;;21.76;46.51
54920;BME280;63804;53.120;8.764;2023-05-09T13:10:22;101176.91;;;21.76;46.96
54920;BME280;63804;53.120;8.764;2023-05-09T13:12:50;101175.47;;;21.88;47.70
54920;BME280;63804;53.120;8.764;2023-05-09T13:15:19;101161.41;;;21.70;47.87
54920;BME280;63804;53.120;8.764;2023-05-09T13:17:47;101156.59;;;21.57;47.69